Laramie Regional Airport Laramie US
ICAO: KLAR
IATA: LAR
Category: Medium
Scheduled Services: Yes

Elevation: 7284 ft
TransAlt. 18000 ft.

Airport Communications:
ASOS:135.475
DENVER CNTR:125.9
CASPER RDO:122.6
CTAF/UNICOM:123.05

KLAR Zoom In..

Runways:

(A) RW 03 length 8502 ft width 150 ft
---- / hdg 33

(B) RW 12 length 6300 ft width 100 ft
---- / hdg 122

(C) RW 21 length 8502 ft width 150 ft
---- / hdg 213

(D) RW 30 length 6300 ft width 100 ft
---- / hdg 302

Location; KLAR
Day. 19 / Time. 20.53 Zulu
* Altimeter: 30.24
* Temperature: 31° c. 87.8°f.
* Wind from: 300° Speed 14 kn with Gusts up to 31 kn.
Dewpoint: -02° c.
Visibility: 10 Statute Miles.
Clouds: Clear (automated report).

KLAR 192053Z AUTO 30014G31KT 10SM CLR 31/M02 A3024 RMK AO2 PK WND 29031/2044 SLP120 T03061022 56008


Wind From 300°
Speed 14 kn.

 
 
jpsmedia.com for Web Design worldairports.se 2018   terms of use